Time;durP1;ratioP1;P1;durP2;ratioP2;P2;SDS_P1;SDS_P2;PMS_P1;PMS_P2;Temp;Humidity;BMP_temperature;BMP_pressure;BME280_temperature;BME280_humidity;BME280_pressure;Samples;Min_cycle;Max_cycle;Signal;HPM_P1;HPM_P2
2024/01/08 00:00:50;;;;;;;16.90;12.40;;;;;;;-11.95;96.99;100182.85;434300;1257;140363;-61
2024/01/08 00:10:56;;;;;;;17.20;12.40;;;;;;;-11.97;96.54;100190.41;447438;1255;140388;-63
2024/01/08 00:21:04;;;;;;;18.50;14.20;;;;;;;-11.99;96.56;100206.06;433894;1255;140457;-61
2024/01/08 00:31:09;;;;;;;20.70;15.10;;;;;;;-11.97;96.46;100214.05;438543;1255;140042;-61
2024/01/08 00:41:16;;;;;;;19.60;13.00;;;;;;;-11.96;96.75;100225.39;433948;1254;141769;-61
2024/01/08 00:51:22;;;;;;;20.00;14.10;;;;;;;-11.99;96.56;100233.58;444996;1254;140541;-61
2024/01/08 01:01:28;;;;;;;18.60;14.40;;;;;;;-12.03;96.50;100230.06;434091;1255;141298;-61
2024/01/08 01:11:34;;;;;;;16.40;12.70;;;;;;;-12.03;96.54;100232.91;434130;1255;140569;-61
2024/01/08 01:21:39;;;;;;;18.10;13.70;;;;;;;-12.04;96.73;100236.79;434118;1255;141092;-61
2024/01/08 01:31:46;;;;;;;20.50;12.80;;;;;;;-12.01;96.60;100244.63;433943;1258;140419;-60
2024/01/08 01:41:53;;;;;;;15.60;12.60;;;;;;;-11.95;96.84;100254.95;433796;1258;140933;-60
2024/01/08 01:51:59;;;;;;;21.30;13.00;;;;;;;-11.91;96.76;100260.85;433741;1256;140168;-61
2024/01/08 02:02:07;;;;;;;19.40;13.30;;;;;;;-11.89;96.37;100261.44;433977;1258;143564;-61
2024/01/08 02:12:16;;;;;;;17.70;13.10;;;;;;;-11.89;96.49;100263.11;434941;1258;141725;-60
2024/01/08 02:22:22;;;;;;;15.80;11.30;;;;;;;-11.88;96.28;100271.27;446700;1256;142434;-60
2024/01/08 02:32:28;;;;;;;17.90;12.10;;;;;;;-11.85;96.06;100282.21;450837;1254;140336;-61
2024/01/08 02:42:34;;;;;;;15.50;12.10;;;;;;;-11.78;96.06;100287.17;437835;1258;140764;-60
2024/01/08 02:52:40;;;;;;;16.10;10.10;;;;;;;-11.71;95.93;100299.45;434415;1256;140480;-60
2024/01/08 03:02:46;;;;;;;12.70;10.30;;;;;;;-11.67;96.02;100312.08;434277;1256;141515;-61
2024/01/08 03:12:54;;;;;;;18.10;12.90;;;;;;;-11.66;95.68;100311.63;436799;1258;140665;-60
2024/01/08 03:23:00;;;;;;;14.20;9.90;;;;;;;-11.63;96.04;100315.79;443319;1257;140104;-60
2024/01/08 03:33:07;;;;;;;15.00;10.60;;;;;;;-11.55;96.12;100340.42;440948;1256;140459;-61
2024/01/08 03:43:13;;;;;;;16.70;11.70;;;;;;;-11.48;96.03;100353.84;439763;1255;140002;-61
2024/01/08 03:53:19;;;;;;;18.60;11.40;;;;;;;-11.50;96.39;100351.41;438802;1258;140369;-60
2024/01/08 04:03:25;;;;;;;17.20;12.20;;;;;;;-11.56;96.12;100356.95;433449;1256;140241;-61
2024/01/08 04:13:31;;;;;;;15.40;12.50;;;;;;;-11.69;95.90;100368.09;433587;1258;140796;-61
2024/01/08 04:23:36;;;;;;;15.90;11.50;;;;;;;-11.83;96.07;100380.05;433651;1255;141556;-61
2024/01/08 04:33:42;;;;;;;16.00;12.40;;;;;;;-11.96;95.82;100397.45;433541;1256;140346;-60
2024/01/08 04:43:49;;;;;;;16.70;11.70;;;;;;;-12.14;95.97;100408.23;433884;1258;143070;-62
2024/01/08 04:53:55;;;;;;;16.60;12.90;;;;;;;-12.30;95.75;100415.52;446609;1258;140716;-61
2024/01/08 05:04:01;;;;;;;16.40;12.10;;;;;;;-12.41;95.91;100426.56;433787;1258;141140;-60
2024/01/08 05:14:08;;;;;;;21.80;13.00;;;;;;;-12.45;96.09;100438.85;433950;1258;140348;-61
2024/01/08 05:24:14;;;;;;;16.10;12.00;;;;;;;-12.58;95.94;100460.38;433911;1255;140133;-60
2024/01/08 05:34:21;;;;;;;20.30;13.30;;;;;;;-12.68;96.18;100463.02;433801;1256;140203;-59
2024/01/08 05:44:27;;;;;;;19.60;13.00;;;;;;;-12.72;96.22;100468.42;433528;1255;140625;-61
2024/01/08 05:54:33;;;;;;;21.60;14.60;;;;;;;-12.73;96.19;100479.16;433663;1256;140578;-62
2024/01/08 06:04:39;;;;;;;16.50;11.40;;;;;;;-12.72;96.26;100486.60;434149;1256;141344;-62
2024/01/08 06:14:45;;;;;;;19.80;13.90;;;;;;;-12.72;96.33;100492.52;433697;1256;140022;-61
2024/01/08 06:24:51;;;;;;;18.80;14.10;;;;;;;-12.75;96.41;100501.14;434634;1258;140305;-63
2024/01/08 06:34:57;;;;;;;20.90;13.70;;;;;;;-12.81;96.33;100515.71;433498;1258;140933;-61
2024/01/08 06:45:03;;;;;;;19.90;13.40;;;;;;;-12.92;96.17;100532.09;433882;1259;141300;-61
2024/01/08 06:55:10;;;;;;;20.00;14.40;;;;;;;-13.05;96.16;100538.92;433427;1256;140005;-60
2024/01/08 07:05:17;;;;;;;18.00;13.70;;;;;;;-13.10;96.39;100558.07;435465;1258;140387;-63
2024/01/08 07:15:40;;;;;;;20.80;15.20;;;;;;;-13.06;96.45;100570.74;433587;1258;141403;-63
2024/01/08 07:25:46;;;;;;;20.40;13.10;;;;;;;-12.92;96.38;100583.52;436262;1258;140846;-72
2024/01/08 07:35:51;;;;;;;23.60;14.90;;;;;;;-12.68;96.47;100594.41;435159;1258;140852;-70
2024/01/08 07:45:57;;;;;;;17.80;12.50;;;;;;;-12.29;96.00;100611.70;438618;1258;140193;-68
2024/01/08 07:56:03;;;;;;;18.20;12.50;;;;;;;-12.13;95.88;100615.42;433525;1259;141646;-64
2024/01/08 08:06:10;;;;;;;17.80;13.50;;;;;;;-11.94;95.35;100634.61;439079;1259;141056;-65
2024/01/08 08:16:16;;;;;;;20.20;13.50;;;;;;;-11.66;95.52;100647.80;434115;1259;140859;-64
2024/01/08 08:26:23;;;;;;;17.60;12.80;;;;;;;-10.33;96.44;100656.77;434900;1258;140956;-64
2024/01/08 08:36:29;;;;;;;17.60;11.90;;;;;;;-7.39;95.35;100666.60;434690;1259;140648;-63
2024/01/08 08:46:37;;;;;;;15.40;11.50;;;;;;;-5.30;92.63;100675.91;433851;1258;140075;-67
2024/01/08 08:56:43;;;;;;;15.80;12.20;;;;;;;-3.95;89.61;100686.39;433542;1258;139562;-69
2024/01/08 09:06:49;;;;;;;18.00;14.80;;;;;;;-2.27;88.00;100703.39;433817;1259;141197;-68
2024/01/08 09:16:57;;;;;;;16.70;13.50;;;;;;;-0.37;86.43;100720.27;433764;1258;139653;-62
2024/01/08 09:27:04;;;;;;;16.30;13.70;;;;;;;1.15;83.05;100727.02;434399;1259;140125;-67
2024/01/08 09:37:10;;;;;;;19.00;13.30;;;;;;;1.81;79.71;100727.88;435269;1260;139907;-65
2024/01/08 09:47:17;;;;;;;17.20;11.50;;;;;;;0.98;76.19;100732.60;434486;1260;139514;-66
2024/01/08 09:57:23;;;;;;;15.80;11.30;;;;;;;-2.97;73.79;100742.15;434114;1259;138818;-61
2024/01/08 10:07:27;;;;;;;;;;;;;;;-5.40;75.07;100750.30;434521;1260;138898;-73
2024/01/08 10:17:34;;;;;;;21.10;15.10;;;;;;;-6.96;75.97;100764.47;434198;1259;126797;-76
2024/01/08 10:27:40;;;;;;;21.70;13.10;;;;;;;-8.16;76.71;100771.27;436986;1257;139521;-66
2024/01/08 10:37:50;;;;;;;17.80;12.70;;;;;;;-9.07;77.33;100773.58;433564;1254;139804;-67
2024/01/08 10:48:07;;;;;;;16.00;11.90;;;;;;;-9.69;78.38;100778.48;433511;1260;140879;-64
2024/01/08 10:58:24;;;;;;;15.50;12.70;;;;;;;-10.12;79.45;100777.72;439503;1254;139512;-64
2024/01/08 11:08:31;;;;;;;18.00;12.90;;;;;;;-10.29;80.15;100779.41;434450;1260;141181;-64
2024/01/08 11:18:38;;;;;;;21.00;12.20;;;;;;;-10.34;81.32;100782.61;433472;1254;139640;-64
2024/01/08 11:29:00;;;;;;;16.80;11.80;;;;;;;-10.41;82.00;100777.79;433626;1258;140433;-65
2024/01/08 11:39:13;;;;;;;21.60;13.10;;;;;;;-10.37;82.23;100787.41;433860;1257;140133;-64
2024/01/08 11:49:19;;;;;;;15.80;11.30;;;;;;;-10.38;82.39;100780.41;440793;1254;140042;-68
2024/01/08 11:59:33;;;;;;;17.20;11.90;;;;;;;-10.34;82.96;100782.44;433528;1254;140090;-65
2024/01/08 12:09:40;;;;;;;17.20;14.30;;;;;;;-10.28;83.19;100783.52;433458;1259;140450;-67
2024/01/08 12:19:48;;;;;;;18.50;13.90;;;;;;;-10.25;83.65;100793.63;433828;1256;140953;-68
2024/01/08 12:29:57;;;;;;;25.30;16.90;;;;;;;-10.23;83.83;100800.83;435770;1254;140843;-59
2024/01/08 12:40:04;;;;;;;25.40;18.60;;;;;;;-10.19;84.19;100798.79;433699;1260;139839;-63
2024/01/08 12:50:11;;;;;;;20.80;14.80;;;;;;;-10.13;84.38;100802.92;435214;1258;140885;-63
2024/01/08 13:00:18;;;;;;;18.80;14.20;;;;;;;-10.19;84.00;100811.51;433711;1257;141770;-61
2024/01/08 13:10:24;;;;;;;17.40;12.60;;;;;;;-10.30;84.22;100822.25;434268;1258;140172;-62
2024/01/08 13:20:30;;;;;;;20.20;13.90;;;;;;;-10.30;84.36;100838.14;433976;1254;139970;-63
2024/01/08 13:30:36;;;;;;;18.40;12.80;;;;;;;-10.31;84.57;100857.60;433769;1254;140366;-69
2024/01/08 13:40:42;;;;;;;22.40;15.30;;;;;;;-10.35;84.74;100870.79;439062;1255;139941;-72
2024/01/08 13:50:48;;;;;;;24.70;13.70;;;;;;;-10.42;84.88;100896.11;438809;1254;140517;-71
2024/01/08 14:00:55;;;;;;;21.70;16.30;;;;;;;-10.56;84.68;100914.13;436850;1258;140369;-67
2024/01/08 14:11:03;;;;;;;26.70;18.10;;;;;;;-10.77;84.70;100927.80;436424;1256;140560;-69
2024/01/08 14:21:09;;;;;;;19.60;15.60;;;;;;;-11.06;85.12;100950.84;433996;1254;140627;-63
2024/01/08 14:31:16;;;;;;;37.90;22.90;;;;;;;-11.35;85.16;100964.07;433531;1254;140800;-63
2024/01/08 14:41:22;;;;;;;19.80;13.80;;;;;;;-11.58;85.85;100977.02;433542;1258;140683;-64
2024/01/08 14:51:28;;;;;;;21.10;15.30;;;;;;;-11.79;86.43;100993.05;433580;1254;141094;-62
2024/01/08 15:01:34;;;;;;;24.70;14.80;;;;;;;-11.98;86.69;100998.58;433453;1259;141472;-63
2024/01/08 15:11:40;;;;;;;23.00;16.00;;;;;;;-12.15;87.27;101008.02;437249;1254;140287;-62
2024/01/08 15:21:47;;;;;;;22.70;15.60;;;;;;;-12.28;87.56;101009.07;433732;1259;141739;-62
2024/01/08 15:31:53;;;;;;;25.30;16.30;;;;;;;-12.37;88.16;101020.05;434316;1254;140635;-73
2024/01/08 15:41:58;;;;;;;23.00;17.40;;;;;;;-12.45;88.45;101026.27;434076;1258;140972;-64
2024/01/08 15:52:05;;;;;;;23.90;16.40;;;;;;;-12.54;88.67;101031.67;433728;1258;141328;-74
2024/01/08 16:02:11;;;;;;;25.00;18.20;;;;;;;-12.61;88.99;101035.52;435120;1258;140724;-62
2024/01/08 16:12:19;;;;;;;21.80;15.30;;;;;;;-12.71;89.16;101038.55;433636;1258;141995;-61
2024/01/08 16:22:25;;;;;;;23.50;16.80;;;;;;;-12.82;89.57;101034.77;437289;1255;140915;-63
2024/01/08 16:32:31;;;;;;;30.70;20.00;;;;;;;-12.90;89.71;101048.70;433891;1254;141919;-61
2024/01/08 16:42:38;;;;;;;25.70;18.50;;;;;;;-13.01;89.88;101070.48;435606;1255;140627;-62
2024/01/08 16:52:46;;;;;;;25.00;18.70;;;;;;;-13.08;90.18;101090.86;434296;1258;140695;-62
2024/01/08 17:02:51;;;;;;;26.70;19.40;;;;;;;-13.14;90.34;101111.62;433617;1254;141076;-62
2024/01/08 17:12:58;;;;;;;25.10;19.50;;;;;;;-13.23;90.39;101125.43;440436;1258;140515;-62
2024/01/08 17:23:04;;;;;;;25.40;17.40;;;;;;;-13.28;90.66;101140.28;433613;1254;142290;-61
2024/01/08 17:33:12;;;;;;;27.40;19.00;;;;;;;-13.37;90.53;101156.82;433239;1256;141204;-63
2024/01/08 17:43:18;;;;;;;26.60;19.80;;;;;;;-13.48;90.91;101164.27;433351;1254;140928;-63
2024/01/08 17:53:24;;;;;;;27.70;18.00;;;;;;;-13.61;90.89;101169.11;433095;1255;140455;-63
2024/01/08 18:03:32;;;;;;;28.80;19.60;;;;;;;-13.72;90.82;101170.96;433331;1254;140649;-62
2024/01/08 18:13:38;;;;;;;29.50;21.10;;;;;;;-13.84;90.89;101180.70;436523;1255;142156;-63
2024/01/08 18:23:44;;;;;;;25.70;18.60;;;;;;;-13.94;91.38;101198.13;433540;1256;141757;-61
2024/01/08 18:33:53;;;;;;;29.00;20.60;;;;;;;-14.03;91.38;101204.97;433403;1256;140717;-61
2024/01/08 18:44:03;;;;;;;27.90;19.00;;;;;;;-14.12;91.25;101230.67;434924;1254;141789;-62
2024/01/08 18:54:09;;;;;;;28.40;19.60;;;;;;;-14.20;91.88;101247.54;434348;1255;142054;-62
2024/01/08 19:04:15;;;;;;;31.10;20.80;;;;;;;-14.24;91.88;101260.23;433466;1254;140596;-62
2024/01/08 19:14:21;;;;;;;29.60;19.50;;;;;;;-14.33;92.01;101269.45;434994;1255;140716;-61
2024/01/08 19:24:28;;;;;;;26.00;17.60;;;;;;;-14.37;91.99;101273.06;435244;1255;140766;-61
2024/01/08 19:34:34;;;;;;;28.60;18.60;;;;;;;-14.42;92.02;101268.52;435150;1255;140973;-62
2024/01/08 19:44:40;;;;;;;27.90;18.40;;;;;;;-14.53;92.14;101268.86;434867;1254;141250;-61
2024/01/08 19:54:49;;;;;;;29.00;19.20;;;;;;;-14.60;92.19;101282.54;434079;1254;141073;-62
2024/01/08 20:04:56;;;;;;;29.80;20.90;;;;;;;-14.67;92.29;101295.01;436481;1254;141401;-61
2024/01/08 20:15:01;;;;;;;24.30;17.40;;;;;;;-14.74;92.22;101306.54;434806;1255;141125;-61
2024/01/08 20:25:12;;;;;;;27.70;17.20;;;;;;;-14.75;92.48;101312.31;437572;1255;140686;-62
2024/01/08 20:35:18;;;;;;;26.00;19.80;;;;;;;-14.74;92.66;101319.83;437489;1255;141207;-63
2024/01/08 20:45:25;;;;;;;26.40;18.50;;;;;;;-14.75;92.58;101327.65;434437;1256;141914;-61
2024/01/08 20:55:31;;;;;;;25.90;17.30;;;;;;;-14.79;92.60;101336.79;434939;1258;143099;-62
2024/01/08 21:05:37;;;;;;;33.00;20.10;;;;;;;-14.85;92.87;101342.27;434599;1256;141111;-62
2024/01/08 21:15:43;;;;;;;27.90;18.90;;;;;;;-14.86;92.83;101344.07;435419;1256;142452;-62
2024/01/08 21:25:49;;;;;;;29.80;19.40;;;;;;;-14.91;93.27;101345.44;434752;1258;141162;-63
2024/01/08 21:35:56;;;;;;;27.50;18.90;;;;;;;-15.00;93.32;101357.77;434629;1258;141832;-61
2024/01/08 21:46:02;;;;;;;26.80;20.40;;;;;;;-15.10;93.20;101362.98;435448;1258;141055;-61
2024/01/08 21:56:09;;;;;;;42.60;25.20;;;;;;;-15.12;93.46;101362.83;434663;1258;140405;-65
2024/01/08 22:06:15;;;;;;;30.40;19.80;;;;;;;-15.19;93.50;101366.08;434469;1256;141080;-62
2024/01/08 22:16:21;;;;;;;26.10;19.50;;;;;;;-15.30;93.34;101369.54;434238;1258;142487;-61
2024/01/08 22:26:27;;;;;;;30.70;21.10;;;;;;;-15.39;93.29;101371.73;434388;1258;142821;-62
2024/01/08 22:36:33;;;;;;;26.00;19.40;;;;;;;-15.41;93.67;101377.30;439032;1255;141626;-61
2024/01/08 22:46:40;;;;;;;32.80;22.10;;;;;;;-15.40;93.97;101395.23;434532;1256;141091;-63
2024/01/08 22:56:45;;;;;;;25.40;18.30;;;;;;;-15.35;94.28;101408.14;434217;1255;140777;-62
2024/01/08 23:06:51;;;;;;;23.20;17.60;;;;;;;-15.26;95.12;101397.14;434298;1258;141393;-62
2024/01/08 23:16:57;;;;;;;32.20;25.40;;;;;;;-15.27;94.10;101394.44;435350;1256;142256;-61
2024/01/08 23:27:06;;;;;;;26.00;18.90;;;;;;;-15.31;94.76;101398.31;434204;1258;140882;-62
2024/01/08 23:37:12;;;;;;;31.10;20.40;;;;;;;-15.36;94.87;101403.57;436251;1258;141484;-62
2024/01/08 23:47:18;;;;;;;28.90;20.10;;;;;;;-15.35;94.68;101405.29;434371;1258;141848;-63
2024/01/08 23:57:24;;;;;;;29.10;20.70;;;;;;;-15.31;95.14;101404.70;434310;1258;140636;-62
